createdAt,value
2022-09-28T00:00:02.632Z,97189.41
2022-09-28T00:02:30.429Z,97183.84
2022-09-28T00:04:58.069Z,97192.38
2022-09-28T00:07:25.653Z,97187.31
2022-09-28T00:09:53.231Z,97184.38
2022-09-28T00:12:21.720Z,97184.06
2022-09-28T00:14:51.170Z,97181.34
2022-09-28T00:17:22.123Z,97170.50
2022-09-28T00:19:49.655Z,97177.75
2022-09-28T00:22:17.193Z,97177.88
2022-09-28T00:24:44.730Z,97167.03
2022-09-28T00:27:12.533Z,97157.91
2022-09-28T00:29:40.107Z,97154.84
2022-09-28T00:32:11.787Z,97156.13
2022-09-28T00:34:42.318Z,97147.28
2022-09-28T00:37:10.612Z,97136.47
2022-09-28T00:39:41.163Z,97141.94
2022-09-28T00:42:14.579Z,97134.78
2022-09-28T00:44:48.724Z,97115.13
2022-09-28T00:47:38.903Z,97116.38
2022-09-28T00:50:09.955Z,97117.44
2022-09-28T00:52:44.123Z,97111.34
2022-09-28T00:55:15.083Z,97106.94
2022-09-28T00:57:45.582Z,97110.81
2022-09-28T01:00:14.455Z,97094.53
2022-09-28T01:02:43.647Z,97091.91
2022-09-28T01:05:11.369Z,97092.13
2022-09-28T01:07:39.299Z,97084.13
2022-09-28T01:10:07.352Z,97080.03
2022-09-28T01:12:34.975Z,97081.94
2022-09-28T01:15:02.926Z,97086.97
2022-09-28T01:17:38.085Z,97089.50
2022-09-28T01:20:35.029Z,97071.94
2022-09-28T01:23:38.594Z,97067.31
2022-09-28T01:26:35.973Z,97073.09
2022-09-28T01:29:06.306Z,97075.31
2022-09-28T01:31:35.011Z,97077.81
2022-09-28T01:34:06.168Z,97078.56
2022-09-28T01:36:36.671Z,97064.56
2022-09-28T01:39:06.852Z,97063.53
2022-09-28T01:41:38.039Z,97067.81
2022-09-28T01:44:08.632Z,97069.28
2022-09-28T01:46:41.949Z,97073.41
2022-09-28T01:49:12.607Z,97076.88
2022-09-28T01:51:43.207Z,97066.25
2022-09-28T01:54:13.841Z,97059.84
2022-09-28T01:56:44.489Z,97061.00
2022-09-28T01:59:14.973Z,97057.22
2022-09-28T02:01:45.333Z,97061.19
2022-09-28T02:04:15.890Z,97068.13
2022-09-28T02:06:47.622Z,97061.31
2022-09-28T02:09:18.101Z,97052.59
2022-09-28T02:11:51.516Z,97046.47
2022-09-28T02:14:19.680Z,97051.63
2022-09-28T02:16:48.601Z,97047.22
2022-09-28T02:19:18.352Z,97039.44
2022-09-28T02:21:52.669Z,97039.22
2022-09-28T02:24:24.689Z,97040.50
2022-09-28T02:26:56.409Z,97036.91
2022-09-28T02:29:24.357Z,97038.50
2022-09-28T02:31:52.512Z,97032.41
2022-09-28T02:34:20.089Z,97028.94
2022-09-28T02:36:48.040Z,97028.41
2022-09-28T02:39:16.988Z,97028.31
2022-09-28T02:41:55.713Z,97029.59
2022-09-28T02:44:43.270Z,97043.56
2022-09-28T02:47:17.813Z,97043.19
2022-09-28T02:49:51.139Z,97048.06
2022-09-28T02:52:35.504Z,97054.47
2022-09-28T02:55:17.557Z,97044.59
2022-09-28T02:57:59.479Z,97030.84
2022-09-28T03:00:27.938Z,97046.63
2022-09-28T03:03:02.679Z,97047.69
2022-09-28T03:05:33.164Z,97047.06
2022-09-28T03:08:02.933Z,97039.50
2022-09-28T03:10:36.485Z,97050.09
2022-09-28T03:13:05.723Z,97047.88
2022-09-28T03:15:34.205Z,97033.72
2022-09-28T03:18:01.923Z,97039.47
2022-09-28T03:20:31.146Z,97044.00
2022-09-28T03:25:46.242Z,97055.56
2022-09-28T03:28:15.144Z,97059.13
2022-09-28T03:30:43.393Z,97062.63
2022-09-28T03:33:10.906Z,97064.59
2022-09-28T03:35:38.429Z,97056.19
2022-09-28T03:38:05.989Z,97060.16
2022-09-28T03:40:33.553Z,97057.03
2022-09-28T03:43:01.188Z,97058.28
2022-09-28T03:45:30.128Z,97053.34
2022-09-28T03:47:57.710Z,97052.19
2022-09-28T03:50:25.364Z,97045.16
2022-09-28T03:52:52.876Z,97050.63
2022-09-28T03:55:20.477Z,97045.78
2022-09-28T03:57:54.270Z,97049.66
2022-09-28T04:00:22.006Z,97044.00
2022-09-28T04:02:50.895Z,97050.63
2022-09-28T04:05:18.414Z,97043.16
2022-09-28T04:07:45.933Z,97041.59
2022-09-28T04:10:13.438Z,97042.84
2022-09-28T04:12:40.936Z,97044.75
2022-09-28T04:15:09.163Z,97045.47
2022-09-28T04:17:40.145Z,97045.25
2022-09-28T04:20:10.178Z,97048.50
2022-09-28T04:22:38.220Z,97045.16
2022-09-28T04:25:06.338Z,97043.38
2022-09-28T04:27:51.368Z,97053.44
2022-09-28T04:30:19.068Z,97042.63
2022-09-28T04:32:47.108Z,97048.81
2022-09-28T04:35:16.059Z,97054.38
2022-09-28T04:37:43.595Z,97053.00
2022-09-28T04:40:11.827Z,97048.34
2022-09-28T04:42:39.374Z,97053.50
2022-09-28T04:45:08.252Z,97047.81
2022-09-28T04:47:35.779Z,97053.91
2022-09-28T04:50:03.282Z,97051.38
2022-09-28T04:52:32.167Z,97051.09
2022-09-28T04:54:59.682Z,97053.91
2022-09-28T04:57:27.238Z,97064.16
2022-09-28T04:59:54.754Z,97069.19
2022-09-28T05:02:22.348Z,97075.28
2022-09-28T05:04:49.906Z,97078.94
2022-09-28T05:07:17.417Z,97080.38
2022-09-28T05:09:46.284Z,97084.34
2022-09-28T05:12:13.806Z,97088.09
2022-09-28T05:14:41.962Z,97075.88
2022-09-28T05:17:10.449Z,97088.59
2022-09-28T05:19:38.054Z,97086.56
2022-09-28T05:22:07.176Z,97084.25
2022-09-28T05:24:34.811Z,97084.53
2022-09-28T05:27:03.695Z,97095.09
2022-09-28T05:29:32.355Z,97095.47
2022-09-28T05:32:01.378Z,97101.38
2022-09-28T05:34:29.355Z,97104.00
2022-09-28T05:36:56.934Z,97105.50
2022-09-28T05:39:24.550Z,97098.59
2022-09-28T05:41:52.097Z,97103.38
2022-09-28T05:44:20.966Z,97111.41
2022-09-28T05:46:48.479Z,97109.34
2022-09-28T05:49:15.968Z,97106.28
2022-09-28T05:51:43.490Z,97109.63
2022-09-28T05:54:11.156Z,97105.72
2022-09-28T05:56:38.674Z,97105.97
2022-09-28T05:59:06.223Z,97103.16
2022-09-28T06:01:35.184Z,97109.78
2022-09-28T06:04:02.737Z,97105.25
2022-09-28T06:06:30.224Z,97104.63
2022-09-28T06:08:57.809Z,97098.44
2022-09-28T06:11:27.782Z,97096.91
2022-09-28T06:13:57.622Z,97097.91
2022-09-28T06:16:25.623Z,97103.59
2022-09-28T06:18:54.617Z,97106.47
2022-09-28T06:21:22.145Z,97112.94
2022-09-28T06:23:49.690Z,97120.31
2022-09-28T06:26:17.511Z,97120.75
2022-09-28T06:28:45.065Z,97119.72
2022-09-28T06:31:12.662Z,97126.88
2022-09-28T06:33:42.007Z,97139.50
2022-09-28T06:36:13.680Z,97138.75
2022-09-28T06:38:41.256Z,97143.59
2022-09-28T06:41:08.975Z,97136.06
2022-09-28T06:43:36.702Z,97147.63
2022-09-28T06:46:04.394Z,97146.59
2022-09-28T06:48:33.965Z,97148.59
2022-09-28T06:51:02.201Z,97149.56
2022-09-28T06:53:31.338Z,97153.44
2022-09-28T06:55:59.046Z,97156.91
2022-09-28T06:58:28.143Z,97159.03
2022-09-28T07:00:58.603Z,97164.63
2022-09-28T07:03:26.580Z,97174.28
2022-09-28T07:05:55.252Z,97176.19
2022-09-28T07:08:24.561Z,97185.75
2022-09-28T07:10:56.134Z,97188.69
2022-09-28T07:13:47.515Z,97185.22
2022-09-28T07:16:12.252Z,97193.22
2022-09-28T07:18:40.416Z,97197.84
2022-09-28T07:21:12.737Z,97208.22
2022-09-28T07:23:53.455Z,97197.38
2022-09-28T07:26:24.553Z,97197.66
2022-09-28T07:28:52.395Z,97207.41
2022-09-28T07:31:20.163Z,97211.28
2022-09-28T07:33:51.105Z,97213.91
2022-09-28T07:36:20.813Z,97212.06
2022-09-28T07:38:48.855Z,97220.59
2022-09-28T07:41:21.487Z,97221.97
2022-09-28T07:43:50.821Z,97226.34
2022-09-28T07:46:18.386Z,97225.81
2022-09-28T07:48:46.046Z,97225.34
2022-09-28T07:51:13.645Z,97228.88
2022-09-28T07:53:41.250Z,97233.31
2022-09-28T07:56:09.883Z,97237.00
2022-09-28T07:58:38.868Z,97242.00
2022-09-28T08:01:10.379Z,97242.06
2022-09-28T08:03:39.029Z,97249.34
2022-09-28T08:06:09.795Z,97252.00
2022-09-28T08:08:37.832Z,97254.81
2022-09-28T08:11:08.346Z,97256.72
2022-09-28T08:13:35.836Z,97263.59
2022-09-28T08:16:04.348Z,97257.63
2022-09-28T08:18:33.205Z,97266.13
2022-09-28T08:21:18.571Z,97272.97
2022-09-28T08:23:46.199Z,97269.72
2022-09-28T08:26:15.722Z,97276.31
2022-09-28T08:28:44.872Z,97274.94
2022-09-28T08:31:12.464Z,97281.56
2022-09-28T08:33:42.005Z,97284.25
2022-09-28T08:36:10.424Z,97287.91
2022-09-28T08:38:38.018Z,97287.97
2022-09-28T08:41:16.593Z,97285.69
2022-09-28T08:43:56.809Z,97284.44
2022-09-28T08:46:27.148Z,97285.91
2022-09-28T08:49:23.834Z,97280.69
2022-09-28T08:51:52.338Z,97285.53
2022-09-28T08:54:29.153Z,97287.59
2022-09-28T08:56:59.230Z,97284.75
2022-09-28T08:59:29.709Z,97278.25
2022-09-28T09:02:00.711Z,97291.22
2022-09-28T09:04:29.752Z,97286.63
2022-09-28T09:07:12.661Z,97294.66
2022-09-28T09:09:49.183Z,97297.09
2022-09-28T09:12:21.424Z,97293.38
2022-09-28T09:15:08.519Z,97307.38
2022-09-28T09:17:43.128Z,97300.44
2022-09-28T09:20:19.283Z,97300.53
2022-09-28T09:22:56.638Z,97297.47
2022-09-28T09:25:28.237Z,97304.06
2022-09-28T09:28:38.202Z,97298.53
2022-09-28T09:31:09.794Z,97294.84
2022-09-28T09:34:00.403Z,97311.97
2022-09-28T09:36:38.372Z,97308.38
2022-09-28T09:39:18.614Z,97301.41
2022-09-28T09:41:55.436Z,97314.88
2022-09-28T09:44:34.975Z,97307.66
2022-09-28T09:47:07.731Z,97309.22
2022-09-28T09:49:37.796Z,97310.91
2022-09-28T09:52:11.521Z,97310.19
2022-09-28T09:54:40.849Z,97301.28
2022-09-28T09:57:12.394Z,97302.88
2022-09-28T09:59:42.004Z,97304.91
2022-09-28T10:02:22.335Z,97310.91
2022-09-28T10:04:51.647Z,97315.47
2022-09-28T10:07:24.532Z,97312.72
2022-09-28T10:09:55.259Z,97315.97
2022-09-28T10:12:23.567Z,97314.38
2022-09-28T10:14:51.132Z,97311.13
2022-09-28T10:17:26.885Z,97311.72
2022-09-28T10:19:56.682Z,97314.50
2022-09-28T10:22:28.135Z,97321.22
2022-09-28T10:24:58.361Z,97323.63
2022-09-28T10:27:28.521Z,97315.09
2022-09-28T10:29:58.906Z,97319.06
2022-09-28T10:32:27.751Z,97328.78
2022-09-28T10:35:22.581Z,97326.50
2022-09-28T10:37:55.070Z,97325.91
2022-09-28T10:40:34.634Z,97332.38
2022-09-28T10:43:03.467Z,97335.50
2022-09-28T10:45:36.765Z,97342.59
2022-09-28T10:48:07.602Z,97340.56
2022-09-28T10:50:35.504Z,97352.91
2022-09-28T10:53:19.417Z,97348.28
2022-09-28T10:55:59.215Z,97347.31
2022-09-28T10:58:29.164Z,97341.81
2022-09-28T11:01:02.404Z,97343.28
2022-09-28T11:03:30.983Z,97341.81
2022-09-28T11:06:01.192Z,97347.78
2022-09-28T11:08:32.795Z,97343.88
2022-09-28T11:11:05.978Z,97344.63
2022-09-28T11:13:40.296Z,97335.94
2022-09-28T11:16:08.018Z,97337.38
2022-09-28T11:18:35.596Z,97338.13
2022-09-28T11:21:13.159Z,97340.47
2022-09-28T11:23:44.115Z,97347.22
2022-09-28T11:26:18.190Z,97346.63
2022-09-28T11:28:51.864Z,97336.75
2022-09-28T11:31:26.201Z,97333.91
2022-09-28T11:34:03.792Z,97337.06
2022-09-28T11:36:41.548Z,97332.75
2022-09-28T11:39:12.897Z,97339.63
2022-09-28T11:41:50.357Z,97333.72
2022-09-28T11:44:46.323Z,97334.25
2022-09-28T11:47:36.252Z,97332.63
2022-09-28T11:50:10.481Z,97331.97
2022-09-28T11:52:49.467Z,97330.56
2022-09-28T11:55:26.893Z,97336.50
2022-09-28T11:58:01.357Z,97325.22
2022-09-28T12:00:32.413Z,97327.72
2022-09-28T12:03:05.320Z,97331.06
2022-09-28T12:05:38.698Z,97328.63
2022-09-28T12:08:09.945Z,97331.31
2022-09-28T12:10:45.361Z,97322.44
2022-09-28T12:13:15.809Z,97330.97
2022-09-28T12:16:13.284Z,97325.09
2022-09-28T12:18:39.917Z,97316.41
2022-09-28T12:21:27.038Z,97328.84
2022-09-28T12:23:57.469Z,97328.66
2022-09-28T12:26:35.841Z,97326.81
2022-09-28T12:29:08.949Z,97331.50
2022-09-28T12:31:40.371Z,97334.47
2022-09-28T12:34:11.155Z,97330.06
2022-09-28T12:36:47.491Z,97331.53
2022-09-28T12:39:56.907Z,97334.56
2022-09-28T12:42:42.307Z,97325.03
2022-09-28T12:45:23.289Z,97325.72
2022-09-28T12:48:07.774Z,97326.00
2022-09-28T12:50:47.497Z,97326.97
2022-09-28T12:53:29.648Z,97323.41
2022-09-28T12:56:02.922Z,97320.59
2022-09-28T12:58:41.834Z,97325.69
2022-09-28T13:01:23.121Z,97316.38
2022-09-28T13:04:26.111Z,97320.81
2022-09-28T13:06:58.292Z,97326.03
2022-09-28T13:09:27.538Z,97330.53
2022-09-28T13:12:06.537Z,97327.84
2022-09-28T13:15:09.869Z,97339.28
2022-09-28T13:17:43.873Z,97333.16
2022-09-28T13:20:23.335Z,97333.94
2022-09-28T13:22:56.443Z,97324.03
2022-09-28T13:25:28.021Z,97330.41
2022-09-28T13:27:59.199Z,97330.19
2022-09-28T13:30:28.650Z,97330.00
2022-09-28T13:32:58.731Z,97329.28
2022-09-28T13:35:26.849Z,97327.00
2022-09-28T13:38:45.601Z,97325.47
2022-09-28T13:41:16.621Z,97317.00
2022-09-28T13:43:56.981Z,97328.25
2022-09-28T13:46:32.395Z,97319.63
2022-09-28T13:49:05.311Z,97326.66
2022-09-28T13:51:41.043Z,97315.53
2022-09-28T13:54:22.898Z,97329.03
2022-09-28T13:56:55.260Z,97338.34
2022-09-28T13:59:27.322Z,97333.97
2022-09-28T14:02:06.865Z,97333.97
2022-09-28T14:04:56.236Z,97322.94
2022-09-28T14:10:17.848Z,97329.09
2022-09-28T14:12:48.054Z,97331.59
2022-09-28T14:15:45.175Z,97328.47
2022-09-28T14:18:28.162Z,97329.44
2022-09-28T14:21:22.032Z,97328.59
2022-09-28T14:24:01.734Z,97336.53
2022-09-28T14:26:53.832Z,97336.34
2022-09-28T14:29:28.614Z,97334.22
2022-09-28T14:31:58.329Z,97330.59
2022-09-28T14:34:34.173Z,97325.09
2022-09-28T14:37:21.454Z,97332.19
2022-09-28T14:40:06.724Z,97334.41
2022-09-28T14:42:35.082Z,97336.59
2022-09-28T14:45:35.762Z,97333.97
2022-09-28T14:48:20.378Z,97336.34
2022-09-28T14:50:49.976Z,97334.53
2022-09-28T14:57:09.244Z,97341.81
2022-09-28T14:59:43.470Z,97344.03
2022-09-28T15:02:17.432Z,97340.41
2022-09-28T15:04:46.913Z,97342.28
2022-09-28T15:07:22.345Z,97349.63
2022-09-28T15:09:51.363Z,97348.16
2022-09-28T15:12:20.969Z,97340.81
2022-09-28T15:14:53.588Z,97347.22
2022-09-28T15:17:23.545Z,97348.31
2022-09-28T15:20:03.077Z,97339.81
2022-09-28T15:22:32.994Z,97345.28
2022-09-28T15:25:03.147Z,97342.84
2022-09-28T15:27:35.585Z,97348.72
2022-09-28T15:30:12.453Z,97355.31
2022-09-28T15:32:40.061Z,97347.03
2022-09-28T15:35:14.388Z,97347.16
2022-09-28T15:37:43.741Z,97351.53
2022-09-28T15:40:14.930Z,97349.88
2022-09-28T15:42:42.542Z,97346.06
2022-09-28T15:45:26.619Z,97353.53
2022-09-28T15:47:58.445Z,97349.59
2022-09-28T15:50:28.007Z,97352.22
2022-09-28T15:52:58.408Z,97346.63
2022-09-28T15:55:28.517Z,97354.09
2022-09-28T15:58:17.084Z,97360.44
2022-09-28T16:00:46.292Z,97362.09
2022-09-28T16:03:24.952Z,97364.16
2022-09-28T16:05:53.757Z,97363.41
2022-09-28T16:08:25.611Z,97361.66
2022-09-28T16:10:56.487Z,97361.81
2022-09-28T16:13:24.368Z,97365.88
2022-09-28T16:15:57.893Z,97366.25
2022-09-28T16:18:26.711Z,97369.28
2022-09-28T16:20:56.086Z,97369.28
2022-09-28T16:23:28.028Z,97372.16
2022-09-28T16:25:58.835Z,97368.22
2022-09-28T16:28:48.889Z,97372.66
2022-09-28T16:31:29.394Z,97376.06
2022-09-28T16:33:59.212Z,97381.34
2022-09-28T16:36:29.748Z,97372.69
2022-09-28T16:38:58.738Z,97369.44
2022-09-28T16:41:28.840Z,97372.84
2022-09-28T16:44:00.795Z,97375.00
2022-09-28T16:46:32.133Z,97377.06
2022-09-28T16:48:59.817Z,97378.38
2022-09-28T16:51:27.792Z,97380.19
2022-09-28T16:54:13.044Z,97384.63
2022-09-28T16:56:41.961Z,97384.28
2022-09-28T16:59:13.667Z,97384.38
2022-09-28T17:01:43.768Z,97388.94
2022-09-28T17:04:12.074Z,97394.47
2022-09-28T17:06:39.800Z,97394.47
2022-09-28T17:09:07.865Z,97392.69
2022-09-28T17:11:35.484Z,97397.00
2022-09-28T17:14:04.376Z,97404.16
2022-09-28T17:17:06.147Z,97402.41
2022-09-28T17:19:23.757Z,97400.91
2022-09-28T17:21:52.125Z,97409.56
2022-09-28T17:24:20.472Z,97407.16
2022-09-28T17:26:50.285Z,97408.84
2022-09-28T17:29:19.532Z,97410.28
2022-09-28T17:31:47.668Z,97413.88
2022-09-28T17:34:16.673Z,97410.50
2022-09-28T17:36:44.960Z,97413.25
2022-09-28T17:39:13.296Z,97419.59
2022-09-28T17:41:41.091Z,97426.19
2022-09-28T17:44:08.667Z,97409.13
2022-09-28T17:46:39.636Z,97423.78
2022-09-28T17:49:09.354Z,97428.22
2022-09-28T17:51:37.977Z,97417.75
2022-09-28T17:54:06.785Z,97425.31
2022-09-28T17:56:35.177Z,97431.19
2022-09-28T17:59:04.783Z,97420.09
2022-09-28T18:01:34.935Z,97428.28
2022-09-28T18:04:05.170Z,97426.50
2022-09-28T18:06:33.509Z,97430.88
2022-09-28T18:09:02.080Z,97429.78
2022-09-28T18:11:29.925Z,97431.06
2022-09-28T18:13:57.489Z,97435.16
2022-09-28T18:16:25.984Z,97439.03
2022-09-28T18:18:53.509Z,97441.56
2022-09-28T18:21:22.420Z,97441.44
2022-09-28T18:23:50.054Z,97440.38
2022-09-28T18:26:19.410Z,97434.22
2022-09-28T18:28:47.837Z,97444.81
2022-09-28T18:31:18.970Z,97443.25
2022-09-28T18:33:48.297Z,97446.22
2022-09-28T18:36:15.873Z,97444.75
2022-09-28T18:38:44.768Z,97448.81
2022-09-28T18:41:15.208Z,97454.63
2022-09-28T18:43:43.173Z,97456.84
2022-09-28T18:46:11.696Z,97459.38
2022-09-28T18:48:40.416Z,97458.13
2022-09-28T18:51:09.393Z,97462.28
2022-09-28T18:53:37.289Z,97466.59
2022-09-28T18:56:10.859Z,97471.06
2022-09-28T18:58:39.170Z,97468.06
2022-09-28T19:01:28.490Z,97464.94
2022-09-28T19:03:55.928Z,97467.66
2022-09-28T19:06:23.500Z,97472.09
2022-09-28T19:08:52.565Z,97472.19
2022-09-28T19:11:22.223Z,97474.22
2022-09-28T19:13:49.781Z,97473.69
2022-09-28T19:16:18.906Z,97477.47
2022-09-28T19:18:46.597Z,97470.09
2022-09-28T19:21:15.555Z,97470.63
2022-09-28T19:23:49.023Z,97467.59
2022-09-28T19:26:18.815Z,97467.69
2022-09-28T19:28:47.711Z,97480.75
2022-09-28T19:31:20.317Z,97479.06
2022-09-28T19:33:48.407Z,97473.16
2022-09-28T19:36:18.327Z,97477.06
2022-09-28T19:38:46.426Z,97479.28
2022-09-28T19:41:39.138Z,97482.94
2022-09-28T19:44:13.030Z,97483.16
2022-09-28T19:46:41.233Z,97482.00
2022-09-28T19:49:10.776Z,97480.41
2022-09-28T19:51:46.977Z,97484.31
2022-09-28T19:54:33.095Z,97488.31
2022-09-28T19:57:07.882Z,97497.44
2022-09-28T19:59:37.189Z,97496.63
2022-09-28T20:02:05.749Z,97502.59
2022-09-28T20:04:33.309Z,97490.28
2022-09-28T20:07:01.002Z,97495.34
2022-09-28T20:09:28.558Z,97503.44
2022-09-28T20:11:56.084Z,97503.59
2022-09-28T20:14:26.020Z,97506.53
2022-09-28T20:16:59.532Z,97514.31
2022-09-28T20:19:27.121Z,97504.34
2022-09-28T20:21:58.447Z,97507.81
2022-09-28T20:24:26.168Z,97514.44
2022-09-28T20:26:53.758Z,97508.63
2022-09-28T20:29:21.361Z,97518.84
2022-09-28T20:31:48.911Z,97514.00
2022-09-28T20:34:18.114Z,97521.44
2022-09-28T20:36:45.692Z,97523.03
2022-09-28T20:39:13.687Z,97520.09
2022-09-28T20:41:41.347Z,97511.34
2022-09-28T20:44:09.877Z,97513.09
2022-09-28T20:46:38.043Z,97513.28
2022-09-28T20:49:07.026Z,97514.34
2022-09-28T20:51:35.984Z,97517.56
2022-09-28T20:54:03.545Z,97500.50
2022-09-28T20:56:37.352Z,97513.88
2022-09-28T20:59:05.159Z,97519.94
2022-09-28T21:01:32.788Z,97520.03
2022-09-28T21:04:01.807Z,97520.88
2022-09-28T21:06:31.893Z,97511.19
2022-09-28T21:09:00.843Z,97520.41
2022-09-28T21:11:29.648Z,97501.84
2022-09-28T21:13:58.867Z,97518.28
2022-09-28T21:16:27.301Z,97520.81
2022-09-28T21:18:54.973Z,97514.06
2022-09-28T21:21:23.665Z,97516.41
2022-09-28T21:23:53.681Z,97515.84
2022-09-28T21:26:25.651Z,97506.53
2022-09-28T21:28:53.427Z,97505.25
2022-09-28T21:31:24.885Z,97508.25
2022-09-28T21:33:56.067Z,97508.81
2022-09-28T21:36:23.612Z,97507.31
2022-09-28T21:38:51.326Z,97509.09
2022-09-28T21:41:18.821Z,97505.44
2022-09-28T21:43:47.868Z,97505.91
2022-09-28T21:46:15.466Z,97514.63
2022-09-28T21:48:43.041Z,97507.13
2022-09-28T21:51:12.276Z,97515.66
2022-09-28T21:53:39.926Z,97515.84
2022-09-28T21:56:09.169Z,97509.75
2022-09-28T21:58:37.141Z,97511.53
2022-09-28T22:01:08.065Z,97516.22
2022-09-28T22:03:36.942Z,97518.84
2022-09-28T22:06:05.334Z,97514.53
2022-09-28T22:08:33.231Z,97513.78
2022-09-28T22:11:01.891Z,97518.09
2022-09-28T22:13:29.537Z,97520.91
2022-09-28T22:15:58.680Z,97522.22
2022-09-28T22:18:29.254Z,97525.97
2022-09-28T22:21:00.320Z,97521.94
2022-09-28T22:23:27.992Z,97529.16
2022-09-28T22:25:59.545Z,97518.56
2022-09-28T22:28:27.227Z,97532.81
2022-09-28T22:30:54.892Z,97529.25
2022-09-28T22:33:22.452Z,97536.28
2022-09-28T22:35:51.362Z,97534.88
2022-09-28T22:38:19.189Z,97543.97
2022-09-28T22:40:50.096Z,97540.38
2022-09-28T22:43:18.656Z,97548.59
2022-09-28T22:45:46.526Z,97543.00
2022-09-28T22:48:14.376Z,97546.72
2022-09-28T22:50:49.146Z,97546.53
2022-09-28T22:53:18.097Z,97550.19
2022-09-28T22:55:45.801Z,97543.72
2022-09-28T22:58:13.709Z,97538.84
2022-09-28T23:00:41.491Z,97532.56
2022-09-28T23:03:09.028Z,97533.03
2022-09-28T23:05:36.606Z,97534.25
2022-09-28T23:08:04.209Z,97537.53
2022-09-28T23:10:33.242Z,97529.09
2022-09-28T23:13:00.762Z,97534.06
2022-09-28T23:15:29.713Z,97530.50
2022-09-28T23:17:57.643Z,97531.63
2022-09-28T23:20:25.425Z,97537.88
2022-09-28T23:22:52.950Z,97540.16
2022-09-28T23:25:20.560Z,97538.56
2022-09-28T23:27:50.767Z,97538.72
2022-09-28T23:30:20.260Z,97539.41
2022-09-28T23:32:47.792Z,97528.53
2022-09-28T23:35:15.436Z,97532.94
2022-09-28T23:37:42.996Z,97534.72
2022-09-28T23:40:11.162Z,97537.56
2022-09-28T23:42:38.687Z,97538.22
2022-09-28T23:45:08.766Z,97537.19
2022-09-28T23:47:37.286Z,97541.59
2022-09-28T23:50:05.427Z,97543.31
2022-09-28T23:52:33.116Z,97550.59
2022-09-28T23:55:00.689Z,97545.28
2022-09-28T23:57:28.334Z,97532.19
2022-09-28T23:59:55.851Z,97539.41
